Time;durP1;ratioP1;P1;durP2;ratioP2;P2;SDS_P1;SDS_P2;PMS_P1;PMS_P2;Temp;Humidity;BMP_temperature;BMP_pressure;BME280_temperature;BME280_humidity;BME280_pressure;Samples;Min_cycle;Max_cycle;Signal;HPM_P1;HPM_P2
2022/12/14 00:00:43;;;;;;;39.00;21.63;;;-6.60;99.90;;;;;;5032851;28;20874;-78
2022/12/14 00:03:10;;;;;;;41.83;21.70;;;-6.60;99.90;;;;;;5033853;28;20219;-77
2022/12/14 00:05:38;;;;;;;38.63;21.33;;;-6.60;99.90;;;;;;5034162;28;20602;-78
2022/12/14 00:08:05;;;;;;;35.77;20.30;;;-6.60;99.90;;;;;;5037713;28;20227;-78
2022/12/14 00:10:33;;;;;;;38.37;20.30;;;-6.60;99.90;;;;;;5035336;28;20763;-77
2022/12/14 00:13:00;;;;;;;34.80;19.17;;;-6.60;99.90;;;;;;5039081;28;20231;-78
2022/12/14 00:15:27;;;;;;;40.67;20.50;;;-6.60;99.90;;;;;;5037265;28;20255;-77
2022/12/14 00:17:54;;;;;;;39.90;20.53;;;-6.60;99.90;;;;;;5041416;28;20729;-78
2022/12/14 00:20:22;;;;;;;36.57;19.80;;;-6.60;99.90;;;;;;5037881;28;20423;-78
2022/12/14 00:22:50;;;;;;;35.43;19.67;;;-6.60;99.90;;;;;;5040002;28;20665;-78
2022/12/14 00:25:17;;;;;;;39.70;20.27;;;-6.70;99.90;;;;;;5036653;28;20230;-77
2022/12/14 00:27:45;;;;;;;67.23;23.17;;;-6.60;99.90;;;;;;5039079;28;20687;-77
2022/12/14 00:30:13;;;;;;;38.37;20.13;;;-6.60;99.90;;;;;;5039804;28;20440;-78
2022/12/14 00:32:40;;;;;;;31.57;18.60;;;-6.60;99.90;;;;;;5040304;28;20225;-78
2022/12/14 00:35:08;;;;;;;41.17;18.53;;;-6.70;99.90;;;;;;5035936;28;20268;-78
2022/12/14 00:37:35;;;;;;;35.63;18.77;;;-6.70;99.90;;;;;;5039199;28;20233;-77
2022/12/14 00:40:05;;;;;;;38.83;18.27;;;-6.70;99.90;;;;;;5036650;28;20233;-78
2022/12/14 00:42:32;;;;;;;52.70;18.87;;;-6.70;99.90;;;;;;5034901;28;20274;-79
2022/12/14 00:44:59;;;;;;;41.60;19.00;;;-6.70;99.90;;;;;;5033227;28;20233;-79
2022/12/14 00:47:26;;;;;;;32.43;17.27;;;-6.70;99.90;;;;;;5032509;28;20237;-79
2022/12/14 00:49:53;;;;;;;39.10;17.67;;;-6.70;99.90;;;;;;5037847;28;20715;-78
2022/12/14 00:52:20;;;;;;;31.90;17.30;;;-6.70;99.90;;;;;;5037393;28;20313;-79
2022/12/14 00:54:48;;;;;;;46.40;18.50;;;-6.70;99.90;;;;;;5036104;28;20226;-78
2022/12/14 00:57:16;;;;;;;31.93;17.47;;;-6.80;99.90;;;;;;5040434;28;20525;-78
2022/12/14 00:59:43;;;;;;;67.33;20.53;;;-6.70;99.90;;;;;;5033024;28;20345;-78
2022/12/14 01:02:10;;;;;;;32.33;16.77;;;-6.70;99.90;;;;;;5034824;28;20312;-78
2022/12/14 01:04:36;;;;;;;48.10;17.50;;;-6.80;99.90;;;;;;5032232;28;20227;-77
2022/12/14 01:07:03;;;;;;;31.97;16.97;;;-6.80;99.90;;;;;;5034802;28;20773;-78
2022/12/14 01:09:30;;;;;;;34.63;17.50;;;-6.80;99.90;;;;;;5034583;28;20257;-78
2022/12/14 01:11:57;;;;;;;29.57;15.70;;;-6.80;99.90;;;;;;5033697;28;20219;-77
2022/12/14 01:14:25;;;;;;;29.60;15.40;;;-6.80;99.90;;;;;;5033792;28;20227;-77
2022/12/14 01:16:51;;;;;;;32.07;16.77;;;-6.80;99.90;;;;;;5035506;28;20325;-77
2022/12/14 01:19:18;;;;;;;33.13;16.90;;;-6.80;99.90;;;;;;5039815;28;20233;-77
2022/12/14 01:21:45;;;;;;;31.13;17.10;;;-6.90;99.90;;;;;;5040039;28;20236;-78
2022/12/14 01:24:11;;;;;;;36.60;17.17;;;-6.80;99.90;;;;;;5037769;28;20232;-78
2022/12/14 01:26:40;;;;;;;31.57;16.97;;;-6.80;99.90;;;;;;5033699;28;20233;-77
2022/12/14 01:29:07;;;;;;;36.03;16.87;;;-6.90;99.90;;;;;;5038377;28;20570;-78
2022/12/14 01:31:37;;;;;;;33.20;17.00;;;-6.90;99.90;;;;;;5037139;28;20238;-78
2022/12/14 01:34:05;;;;;;;33.60;17.10;;;-6.90;99.90;;;;;;5035295;28;20228;-78
2022/12/14 01:36:34;;;;;;;173.20;29.23;;;-6.90;99.90;;;;;;5043431;28;20311;-77
2022/12/14 01:39:05;;;;;;;33.33;17.60;;;-6.90;99.90;;;;;;5033484;28;20256;-77
2022/12/14 01:41:34;;;;;;;31.77;17.60;;;-7.00;99.90;;;;;;5042879;28;20703;-77
2022/12/14 01:44:04;;;;;;;33.17;17.33;;;-7.00;99.90;;;;;;5036791;28;20267;-77
2022/12/14 01:46:34;;;;;;;32.50;18.53;;;-7.00;99.90;;;;;;5036645;28;20226;-77
2022/12/14 01:49:11;;;;;;;35.60;18.67;;;-7.10;99.90;;;;;;5032893;28;20261;-77
2022/12/14 01:51:39;;;;;;;32.50;16.83;;;-7.00;99.90;;;;;;5037677;28;20223;-77
2022/12/14 01:54:09;;;;;;;33.17;18.23;;;-7.10;99.90;;;;;;5034320;28;20429;-77
2022/12/14 01:56:39;;;;;;;60.70;19.10;;;-7.10;99.90;;;;;;5039435;28;20243;-78
2022/12/14 01:59:10;;;;;;;32.47;18.47;;;-7.10;99.90;;;;;;5040213;28;20235;-77
2022/12/14 02:01:38;;;;;;;33.60;17.23;;;-7.10;99.90;;;;;;5034443;28;20253;-78
2022/12/14 02:04:07;;;;;;;34.00;17.43;;;-7.20;99.90;;;;;;5034843;28;20229;-77
2022/12/14 02:06:37;;;;;;;36.53;17.17;;;-7.20;99.90;;;;;;5038576;28;20241;-77
2022/12/14 02:09:08;;;;;;;31.53;17.67;;;-7.20;99.90;;;;;;5036725;28;20228;-78
2022/12/14 02:11:40;;;;;;;31.23;17.50;;;-7.20;99.90;;;;;;5039059;28;20237;-78
2022/12/14 02:14:07;;;;;;;33.87;17.70;;;-7.20;99.90;;;;;;5035493;28;20383;-78
2022/12/14 02:16:34;;;;;;;37.23;18.10;;;-7.20;99.90;;;;;;5036331;28;20254;-77
2022/12/14 02:19:01;;;;;;;31.27;17.37;;;-7.20;99.90;;;;;;5037275;28;20222;-78
2022/12/14 02:21:44;;;;;;;35.43;17.93;;;-7.20;99.90;;;;;;5040503;28;20241;-77
2022/12/14 02:24:33;;;;;;;30.40;17.33;;;-7.20;99.90;;;;;;5037247;28;20370;-77
2022/12/14 02:27:23;;;;;;;34.27;16.83;;;-7.30;99.90;;;;;;5032731;28;20228;-77
2022/12/14 02:30:04;;;;;;;38.13;18.03;;;-7.30;99.90;;;;;;5036354;28;20834;-78
2022/12/14 02:32:43;;;;;;;37.57;17.87;;;-7.30;99.90;;;;;;5041511;28;20237;-78
2022/12/14 02:35:17;;;;;;;30.40;17.40;;;-7.30;99.90;;;;;;5038122;28;20249;-78
2022/12/14 02:37:52;;;;;;;58.37;19.60;;;-7.40;99.90;;;;;;5038414;28;20756;-78
2022/12/14 02:40:26;;;;;;;34.20;18.67;;;-7.40;99.90;;;;;;5034116;28;20222;-78
2022/12/14 02:43:01;;;;;;;29.17;16.83;;;-7.40;99.90;;;;;;5041356;28;20827;-78
2022/12/14 02:45:36;;;;;;;31.60;16.63;;;-7.50;99.90;;;;;;5033468;28;20234;-78
2022/12/14 02:48:06;;;;;;;32.03;17.83;;;-7.40;99.90;;;;;;5037204;28;20225;-78
2022/12/14 02:50:39;;;;;;;105.33;20.77;;;-7.40;99.90;;;;;;5038236;28;20925;-78
2022/12/14 02:53:14;;;;;;;36.53;17.87;;;-7.50;99.90;;;;;;5037741;28;20249;-78
2022/12/14 02:55:44;;;;;;;30.50;16.53;;;-7.50;99.90;;;;;;5042960;28;20220;-78
2022/12/14 02:58:15;;;;;;;36.67;17.53;;;-7.50;99.90;;;;;;5038039;28;20220;-78
2022/12/14 03:00:44;;;;;;;47.47;18.10;;;-7.50;99.90;;;;;;5040142;28;20222;-78
2022/12/14 03:03:11;;;;;;;33.27;17.97;;;-7.50;99.90;;;;;;5035086;28;20234;-78
2022/12/14 03:05:37;;;;;;;31.20;17.37;;;-7.60;99.90;;;;;;5038707;28;20222;-78
2022/12/14 03:08:08;;;;;;;60.00;19.63;;;-7.60;99.90;;;;;;5034860;28;20245;-77
2022/12/14 03:10:39;;;;;;;54.60;18.97;;;-7.60;99.90;;;;;;5032760;28;20325;-78
2022/12/14 03:13:15;;;;;;;38.10;18.60;;;-7.60;99.90;;;;;;5033868;28;20454;-78
2022/12/14 03:15:47;;;;;;;56.43;19.43;;;-7.60;99.90;;;;;;5040908;28;20233;-78
2022/12/14 03:18:18;;;;;;;34.60;17.80;;;-7.60;99.90;;;;;;5042157;28;20226;-78
2022/12/14 03:20:48;;;;;;;125.13;24.90;;;-7.50;99.90;;;;;;5041048;28;20224;-77
2022/12/14 03:23:20;;;;;;;32.93;18.47;;;-7.60;99.90;;;;;;5036397;28;20251;-77
2022/12/14 03:25:54;;;;;;;43.13;18.00;;;-7.60;99.90;;;;;;5035049;28;20229;-78
2022/12/14 03:28:26;;;;;;;32.20;17.93;;;-7.60;99.90;;;;;;5035766;28;20699;-77
2022/12/14 03:31:02;;;;;;;30.37;17.00;;;-7.60;99.90;;;;;;5042482;28;20224;-78
2022/12/14 03:33:31;;;;;;;34.83;16.57;;;-7.60;99.90;;;;;;5033767;28;20221;-78
2022/12/14 03:36:03;;;;;;;32.80;16.60;;;-7.70;99.90;;;;;;5032628;28;20239;-78
2022/12/14 03:38:35;;;;;;;34.13;17.30;;;-7.70;99.90;;;;;;5039610;28;20310;-78
2022/12/14 03:41:12;;;;;;;33.13;17.23;;;-7.70;99.90;;;;;;5032804;28;20853;-78
2022/12/14 03:43:52;;;;;;;31.90;17.80;;;-7.70;99.90;;;;;;5029828;28;20224;-78
2022/12/14 03:46:31;;;;;;;33.67;17.27;;;-7.80;99.90;;;;;;5034997;28;20233;-77
2022/12/14 03:49:09;;;;;;;27.53;16.33;;;-7.80;99.90;;;;;;5029677;28;20454;-78
2022/12/14 03:51:41;;;;;;;36.53;17.00;;;-7.80;99.90;;;;;;5034368;28;20288;-78
2022/12/14 03:54:15;;;;;;;41.67;17.13;;;-7.80;99.90;;;;;;5038499;28;20231;-76
2022/12/14 03:56:47;;;;;;;31.27;17.70;;;-7.90;99.90;;;;;;5032424;28;20813;-77
2022/12/14 03:59:17;;;;;;;32.33;16.50;;;-7.90;99.90;;;;;;5040084;28;20233;-77
2022/12/14 04:01:53;;;;;;;31.17;16.20;;;-7.90;99.90;;;;;;5034960;28;20230;-76
2022/12/14 04:04:27;;;;;;;30.93;17.37;;;-7.90;99.90;;;;;;5035044;28;20246;-77
2022/12/14 04:06:57;;;;;;;34.17;17.57;;;-7.90;99.90;;;;;;5033591;28;20229;-79
2022/12/14 04:09:32;;;;;;;35.57;16.70;;;-8.00;99.90;;;;;;5035517;28;20240;-79
2022/12/14 04:20:31;;;;;;;31.13;15.83;;;-8.00;99.90;;;;;;5035515;28;20555;-78
2022/12/14 04:23:03;;;;;;;30.30;15.70;;;-8.10;99.90;;;;;;5039202;28;20227;-78
2022/12/14 04:31:27;;;;;;;31.50;16.73;;;-8.20;99.90;;;;;;5009963;28;20223;-79
2022/12/14 04:33:58;;;;;;;26.53;15.23;;;-8.20;99.90;;;;;;5014910;28;20231;-79
2022/12/14 04:36:30;;;;;;;31.77;16.67;;;-8.30;99.90;;;;;;5022888;28;20229;-79
2022/12/14 04:39:00;;;;;;;33.93;17.80;;;-8.30;99.90;;;;;;5040396;28;20615;-79
2022/12/14 04:41:32;;;;;;;33.33;16.63;;;-8.30;99.90;;;;;;5038947;28;20229;-79
2022/12/14 04:44:02;;;;;;;39.50;16.73;;;-8.30;99.90;;;;;;5033857;28;20637;-79
2022/12/14 04:46:33;;;;;;;39.53;16.13;;;-8.30;99.90;;;;;;5029415;28;20606;-78
2022/12/14 04:49:12;;;;;;;36.23;17.87;;;-8.30;99.90;;;;;;5036864;28;20228;-78
2022/12/14 04:51:46;;;;;;;37.37;16.87;;;-8.40;99.90;;;;;;5033016;28;20212;-78
2022/12/14 04:54:21;;;;;;;30.07;16.80;;;-8.40;99.90;;;;;;5028686;28;20791;-78
2022/12/14 04:56:53;;;;;;;33.00;16.30;;;-8.40;99.90;;;;;;5051396;28;20243;-80
2022/12/14 04:59:20;;;;;;;32.37;15.93;;;-8.40;99.90;;;;;;5039543;28;20247;-78
2022/12/14 05:01:57;;;;;;;37.83;16.70;;;-8.40;99.90;;;;;;5027608;28;20224;-78
2022/12/14 05:04:36;;;;;;;35.97;16.37;;;-8.40;99.90;;;;;;5035960;28;20222;-79
2022/12/14 05:07:11;;;;;;;29.47;15.77;;;-8.40;99.90;;;;;;5038194;28;20230;-78
2022/12/14 05:09:46;;;;;;;31.07;16.47;;;-8.40;99.90;;;;;;5045063;28;20226;-78
2022/12/14 05:12:17;;;;;;;40.67;16.17;;;-8.40;99.90;;;;;;5045685;28;20226;-79
2022/12/14 05:14:47;;;;;;;36.80;17.30;;;-8.40;99.90;;;;;;5043514;28;20230;-79
2022/12/14 05:17:15;;;;;;;32.70;17.20;;;-8.40;99.90;;;;;;5044435;28;20341;-79
2022/12/14 05:19:46;;;;;;;63.87;18.80;;;-8.40;99.90;;;;;;5041432;28;20223;-79
2022/12/14 05:22:13;;;;;;;31.43;16.20;;;-8.40;99.90;;;;;;5045057;28;20697;-78
2022/12/14 05:24:39;;;;;;;30.60;16.13;;;-8.40;99.90;;;;;;5042615;28;20214;-78
2022/12/14 05:27:06;;;;;;;31.73;16.80;;;-8.40;99.90;;;;;;5037062;28;20314;-78
2022/12/14 05:29:33;;;;;;;44.97;16.83;;;-8.40;99.90;;;;;;5045525;28;20303;-78
2022/12/14 05:32:00;;;;;;;32.23;16.50;;;-8.40;99.90;;;;;;5044719;28;20234;-79
2022/12/14 05:34:27;;;;;;;36.93;17.40;;;-8.40;99.90;;;;;;5049826;28;20300;-78
2022/12/14 05:36:55;;;;;;;41.43;16.73;;;-8.50;99.90;;;;;;5043751;28;20739;-78
2022/12/14 05:39:22;;;;;;;36.03;16.87;;;-8.50;99.90;;;;;;5042140;28;20903;-79
2022/12/14 05:41:49;;;;;;;30.97;16.17;;;-8.50;99.90;;;;;;5041357;28;20253;-79
2022/12/14 05:44:16;;;;;;;33.63;16.77;;;-8.50;99.90;;;;;;5041048;28;20679;-79
2022/12/14 05:46:43;;;;;;;32.93;16.93;;;-8.50;99.90;;;;;;5046029;28;20234;-79
2022/12/14 05:49:11;;;;;;;35.67;18.90;;;-8.50;99.90;;;;;;5046195;28;20286;-79
2022/12/14 05:51:37;;;;;;;35.60;19.10;;;-8.50;99.90;;;;;;5046018;28;20245;-79
2022/12/14 05:54:06;;;;;;;33.43;17.63;;;-8.50;99.90;;;;;;5042233;28;20886;-78
2022/12/14 05:56:32;;;;;;;36.10;18.53;;;-8.50;99.90;;;;;;5035890;28;20887;-78
2022/12/14 05:58:59;;;;;;;35.83;18.63;;;-8.50;99.90;;;;;;5041574;28;20227;-79
2022/12/14 06:01:26;;;;;;;35.93;17.73;;;-8.50;99.90;;;;;;5041303;28;20227;-79
2022/12/14 06:03:53;;;;;;;31.83;18.00;;;-8.50;99.90;;;;;;5034810;28;20250;-80
2022/12/14 06:06:20;;;;;;;70.83;18.90;;;-8.50;99.90;;;;;;5042624;28;20231;-79
2022/12/14 06:08:47;;;;;;;34.53;17.37;;;-8.50;99.90;;;;;;5037760;28;20234;-79
2022/12/14 06:11:16;;;;;;;32.37;16.60;;;-8.50;99.90;;;;;;5045779;28;20211;-80
2022/12/14 06:13:45;;;;;;;117.10;25.00;;;-8.40;99.90;;;;;;5038766;28;20602;-80
2022/12/14 06:16:13;;;;;;;31.80;17.27;;;-8.40;99.90;;;;;;5035225;28;20222;-80
2022/12/14 06:18:45;;;;;;;81.37;21.53;;;-8.50;99.90;;;;;;5038147;28;20227;-80
2022/12/14 06:21:13;;;;;;;35.57;18.23;;;-8.50;99.90;;;;;;5036545;28;20305;-80
2022/12/14 06:23:40;;;;;;;28.90;16.40;;;-8.50;99.90;;;;;;5040682;28;20242;-77
2022/12/14 06:26:08;;;;;;;35.43;17.63;;;-8.50;99.90;;;;;;5035111;28;20239;-80
2022/12/14 06:28:37;;;;;;;35.73;18.70;;;-8.50;99.90;;;;;;5034697;28;20385;-80
2022/12/14 06:31:04;;;;;;;31.47;16.13;;;-8.50;99.90;;;;;;5037530;28;20244;-80
2022/12/14 06:33:33;;;;;;;34.03;16.57;;;-8.60;99.90;;;;;;5040794;28;20254;-79
2022/12/14 06:36:01;;;;;;;38.67;17.77;;;-8.60;99.90;;;;;;5039239;28;20774;-80
2022/12/14 06:38:28;;;;;;;33.73;17.70;;;-8.60;99.90;;;;;;5037691;28;20712;-79
2022/12/14 06:40:55;;;;;;;35.43;18.03;;;-8.70;99.90;;;;;;5040206;28;20232;-79
2022/12/14 06:43:25;;;;;;;36.23;17.67;;;-8.70;99.90;;;;;;5042681;28;20244;-79
2022/12/14 06:45:53;;;;;;;34.93;18.07;;;-8.70;99.90;;;;;;5037017;28;20948;-80
2022/12/14 06:48:20;;;;;;;37.10;19.33;;;-8.70;99.90;;;;;;5037175;28;20324;-79
2022/12/14 06:50:46;;;;;;;45.10;19.27;;;-8.70;99.90;;;;;;5042556;28;20607;-80
2022/12/14 06:53:13;;;;;;;38.50;18.23;;;-8.70;99.90;;;;;;5035261;28;20910;-80
2022/12/14 06:55:40;;;;;;;34.87;18.00;;;-8.70;99.90;;;;;;5048007;28;20835;-80
2022/12/14 06:58:09;;;;;;;36.90;19.63;;;-8.80;99.90;;;;;;5038988;28;20227;-79
2022/12/14 07:00:36;;;;;;;40.00;17.87;;;-8.80;99.90;;;;;;5038697;28;21826;-79
2022/12/14 07:03:04;;;;;;;40.40;18.90;;;-8.80;99.90;;;;;;5034965;28;20467;-79
2022/12/14 07:05:31;;;;;;;129.60;27.00;;;-8.80;99.90;;;;;;5043286;28;20223;-80
2022/12/14 07:07:57;;;;;;;35.93;18.43;;;-8.80;99.90;;;;;;5042144;28;20226;-79
2022/12/14 07:10:24;;;;;;;43.63;19.20;;;-8.80;99.90;;;;;;5044359;28;20231;-79
2022/12/14 07:12:51;;;;;;;34.80;19.30;;;-8.80;99.90;;;;;;5039426;28;20222;-78
2022/12/14 07:15:18;;;;;;;58.60;20.43;;;-8.80;99.90;;;;;;5041277;28;20781;-79
2022/12/14 07:17:45;;;;;;;62.17;20.27;;;-8.80;99.90;;;;;;5041248;28;20227;-79
2022/12/14 07:20:15;;;;;;;82.53;21.40;;;-8.70;99.90;;;;;;5039081;28;20571;-79
2022/12/14 07:22:42;;;;;;;40.77;20.10;;;-8.80;99.90;;;;;;5031033;28;20929;-79
2022/12/14 07:25:09;;;;;;;44.17;20.47;;;-8.70;99.90;;;;;;5039940;28;20220;-79
2022/12/14 07:27:36;;;;;;;50.37;20.00;;;-8.70;99.90;;;;;;5036094;28;20220;-79
2022/12/14 07:30:03;;;;;;;36.27;19.30;;;-8.70;99.90;;;;;;5039233;28;20221;-79
2022/12/14 07:32:31;;;;;;;55.60;20.53;;;-8.70;99.90;;;;;;5037546;28;20217;-78
2022/12/14 07:34:58;;;;;;;39.03;19.10;;;-8.60;99.90;;;;;;5037997;28;20214;-80
2022/12/14 07:37:26;;;;;;;34.43;18.33;;;-8.70;99.90;;;;;;5038850;28;20231;-79
2022/12/14 07:39:54;;;;;;;35.67;19.30;;;-8.70;99.90;;;;;;5042130;28;20234;-80
2022/12/14 07:42:20;;;;;;;34.00;19.00;;;-8.70;99.90;;;;;;5041531;28;20225;-79
2022/12/14 07:44:47;;;;;;;36.33;18.97;;;-8.60;99.90;;;;;;5040562;28;20215;-79
2022/12/14 07:47:13;;;;;;;61.33;20.70;;;-8.60;99.90;;;;;;5033444;28;20776;-79
2022/12/14 07:49:40;;;;;;;34.17;18.70;;;-8.60;99.90;;;;;;5039166;28;20224;-78
2022/12/14 07:52:07;;;;;;;34.73;17.93;;;-8.60;99.90;;;;;;5036802;28;20238;-80
2022/12/14 07:54:35;;;;;;;36.13;19.60;;;-8.60;99.90;;;;;;5037291;28;20223;-79
2022/12/14 07:57:05;;;;;;;39.07;20.17;;;-8.60;99.90;;;;;;5043562;28;21015;-79
2022/12/14 07:59:33;;;;;;;37.67;18.90;;;-8.60;99.90;;;;;;5039943;28;20240;-79
2022/12/14 08:01:59;;;;;;;34.77;17.73;;;-8.50;99.90;;;;;;5039221;28;20225;-79
2022/12/14 08:04:26;;;;;;;35.40;18.30;;;-8.50;99.90;;;;;;5033377;28;20306;-79
2022/12/14 08:06:53;;;;;;;38.57;19.40;;;-8.50;99.90;;;;;;5052440;28;20242;-79
2022/12/14 08:09:19;;;;;;;36.10;18.93;;;-8.50;99.90;;;;;;5032293;28;20231;-79
2022/12/14 08:11:47;;;;;;;40.13;18.70;;;-8.50;99.90;;;;;;5039868;28;20231;-78
2022/12/14 08:14:16;;;;;;;35.97;18.23;;;-8.40;99.90;;;;;;5035574;28;20694;-78
2022/12/14 08:16:44;;;;;;;35.80;19.23;;;-8.40;99.90;;;;;;5030750;28;20223;-79
2022/12/14 08:19:12;;;;;;;32.73;18.33;;;-8.30;99.90;;;;;;5041743;28;20308;-79
2022/12/14 08:21:39;;;;;;;34.53;18.30;;;-8.20;99.90;;;;;;5041801;28;20247;-79
2022/12/14 08:24:06;;;;;;;34.03;18.37;;;-8.00;99.90;;;;;;5033312;28;20227;-79
2022/12/14 08:26:33;;;;;;;33.90;17.20;;;-7.70;99.90;;;;;;5036768;28;20480;-78
2022/12/14 08:29:01;;;;;;;30.30;17.23;;;-7.40;99.90;;;;;;5040115;28;20223;-79
2022/12/14 08:31:28;;;;;;;37.13;18.97;;;-6.90;99.90;;;;;;5038783;28;20467;-79
2022/12/14 08:33:55;;;;;;;31.50;18.00;;;-6.40;99.90;;;;;;5035592;28;20223;-79
2022/12/14 08:36:24;;;;;;;32.37;17.20;;;-5.90;99.90;;;;;;5037028;28;20755;-79
2022/12/14 08:38:59;;;;;;;32.17;17.67;;;-5.40;99.90;;;;;;5039620;28;20686;-78
2022/12/14 08:41:27;;;;;;;25.43;15.73;;;-5.00;99.90;;;;;;5038151;28;20220;-79
2022/12/14 08:43:56;;;;;;;29.97;16.03;;;-4.50;99.90;;;;;;5035715;28;20245;-78
2022/12/14 08:46:25;;;;;;;28.10;16.80;;;-4.10;99.90;;;;;;5025582;28;20230;-79
2022/12/14 08:48:53;;;;;;;27.50;16.90;;;-3.80;99.90;;;;;;5036925;28;21005;-79
2022/12/14 08:51:21;;;;;;;25.60;15.80;;;-3.50;99.90;;;;;;5038981;28;20220;-79
2022/12/14 08:53:48;;;;;;;26.00;16.13;;;-3.20;99.90;;;;;;5040364;28;20225;-80
2022/12/14 08:56:17;;;;;;;27.37;15.60;;;-3.00;99.90;;;;;;5034541;28;20274;-77
2022/12/14 08:58:47;;;;;;;26.13;15.23;;;-2.80;99.90;;;;;;5037342;28;20711;-79
2022/12/14 09:01:15;;;;;;;26.20;15.40;;;-2.60;99.90;;;;;;5037059;28;20212;-78
2022/12/14 09:03:45;;;;;;;26.63;16.20;;;-2.50;99.90;;;;;;5037516;28;20229;-78
2022/12/14 09:06:13;;;;;;;24.20;14.57;;;-2.30;99.90;;;;;;5040078;28;20321;-78
2022/12/14 09:08:40;;;;;;;26.20;15.87;;;-2.20;99.90;;;;;;5039505;28;20240;-79
2022/12/14 09:11:10;;;;;;;23.87;15.47;;;-2.10;99.90;;;;;;5028131;28;20764;-79
2022/12/14 09:13:37;;;;;;;24.67;15.07;;;-1.90;99.90;;;;;;5035286;28;20933;-78
2022/12/14 09:16:07;;;;;;;25.63;14.73;;;-1.80;99.90;;;;;;5037178;28;20724;-78
2022/12/14 09:18:34;;;;;;;24.57;14.60;;;-1.60;99.90;;;;;;5031514;28;20234;-78
2022/12/14 09:21:03;;;;;;;24.50;15.07;;;-1.50;99.90;;;;;;5036956;28;20275;-79
2022/12/14 09:23:31;;;;;;;26.37;15.00;;;-1.40;99.90;;;;;;5040757;28;20293;-79
2022/12/14 09:26:00;;;;;;;22.40;14.73;;;-1.30;99.90;;;;;;5036160;28;20224;-78
2022/12/14 09:28:27;;;;;;;25.13;15.07;;;-1.20;99.90;;;;;;5033495;28;20234;-79
2022/12/14 09:30:57;;;;;;;23.17;15.03;;;-1.00;99.90;;;;;;5041629;28;20227;-79
2022/12/14 09:33:25;;;;;;;24.83;15.07;;;-0.90;99.90;;;;;;5033489;28;20230;-79
2022/12/14 09:35:51;;;;;;;20.93;13.97;;;-0.70;99.90;;;;;;5040942;28;20218;-79
2022/12/14 09:38:20;;;;;;;24.73;15.17;;;-0.60;99.90;;;;;;5040222;28;20218;-79
2022/12/14 09:40:52;;;;;;;26.20;15.57;;;-0.40;99.90;;;;;;5037360;28;20222;-78
2022/12/14 09:43:31;;;;;;;28.27;15.37;;;-0.30;99.80;;;;;;5036772;28;20242;-79
2022/12/14 09:46:05;;;;;;;24.30;15.30;;;-0.20;99.90;;;;;;5024895;28;20224;-79
2022/12/14 09:48:32;;;;;;;30.00;14.90;;;-0.10;99.60;;;;;;5038029;28;20779;-78
2022/12/14 09:50:59;;;;;;;21.20;14.33;;;0.00;99.40;;;;;;5039399;28;20228;-78
2022/12/14 09:53:27;;;;;;;24.10;14.90;;;0.00;99.30;;;;;;5030350;28;20223;-78
2022/12/14 09:55:56;;;;;;;23.27;14.73;;;0.00;99.50;;;;;;5043893;28;20228;-80
2022/12/14 09:58:26;;;;;;;23.17;14.70;;;0.10;99.90;;;;;;5047227;28;20230;-80
2022/12/14 10:01:03;;;;;;;22.03;14.87;;;0.20;99.90;;;;;;5043121;28;20255;-79
2022/12/14 10:03:52;;;;;;;23.10;14.13;;;0.40;99.90;;;;;;5033547;28;20677;-79
2022/12/14 10:06:35;;;;;;;23.90;15.27;;;0.60;99.90;;;;;;5043042;28;20257;-78
2022/12/14 10:09:19;;;;;;;22.93;15.47;;;0.80;99.90;;;;;;5039264;28;20271;-78
2022/12/14 10:11:57;;;;;;;23.50;15.53;;;1.00;99.90;;;;;;5044504;28;20707;-79
2022/12/14 10:14:37;;;;;;;23.07;14.83;;;1.20;99.90;;;;;;5038572;28;20235;-78
2022/12/14 10:17:14;;;;;;;22.40;14.93;;;1.40;98.90;;;;;;5034450;28;20478;-78
2022/12/14 10:19:46;;;;;;;20.93;13.77;;;1.50;97.80;;;;;;5043396;28;20228;-79
2022/12/14 10:22:15;;;;;;;23.80;14.57;;;1.60;98.30;;;;;;5041366;28;20230;-79
2022/12/14 10:24:48;;;;;;;21.87;14.70;;;1.50;98.20;;;;;;5037989;28;20228;-77
2022/12/14 10:27:21;;;;;;;22.83;14.83;;;1.50;99.30;;;;;;5031863;28;20882;-78
2022/12/14 10:29:55;;;;;;;21.50;14.13;;;1.40;99.40;;;;;;5053794;28;20218;-78
2022/12/14 10:32:29;;;;;;;23.23;14.37;;;1.40;99.20;;;;;;5042865;28;20227;-78
2022/12/14 10:34:55;;;;;;;21.93;15.07;;;1.30;99.40;;;;;;5038809;28;20218;-78
2022/12/14 10:37:29;;;;;;;22.23;15.20;;;1.30;99.70;;;;;;5041055;28;20259;-78
2022/12/14 10:40:13;;;;;;;22.70;14.43;;;1.20;99.40;;;;;;5041528;28;20242;-77
2022/12/14 10:42:47;;;;;;;21.10;14.97;;;1.10;98.90;;;;;;5040501;28;20307;-78
2022/12/14 10:45:27;;;;;;;22.97;14.57;;;1.10;99.50;;;;;;5040039;28;20240;-77
2022/12/14 10:48:00;;;;;;;25.40;15.73;;;1.00;98.00;;;;;;5043263;28;20239;-78
2022/12/14 10:50:38;;;;;;;26.53;15.53;;;0.80;98.90;;;;;;5037501;28;20228;-78
2022/12/14 10:53:07;;;;;;;24.23;15.93;;;0.60;99.20;;;;;;5037278;28;21030;-78
2022/12/14 10:55:39;;;;;;;24.97;15.43;;;0.50;99.40;;;;;;5037353;28;20745;-78
2022/12/14 10:58:06;;;;;;;25.13;15.10;;;0.30;99.40;;;;;;5034405;28;20248;-78
2022/12/14 11:00:32;;;;;;;25.03;15.10;;;0.20;99.50;;;;;;5033361;28;20224;-78
2022/12/14 11:02:59;;;;;;;24.83;15.43;;;0.00;99.70;;;;;;5040630;28;20224;-78
2022/12/14 11:05:35;;;;;;;24.60;14.77;;;-0.20;99.00;;;;;;5036351;28;20230;-78
2022/12/14 11:08:05;;;;;;;22.73;14.50;;;-0.30;99.40;;;;;;5040655;28;20237;-78
2022/12/14 11:10:34;;;;;;;23.63;14.60;;;-0.40;99.90;;;;;;5037693;28;20231;-78
2022/12/14 11:13:05;;;;;;;23.40;14.80;;;-0.60;99.80;;;;;;5035040;28;20230;-78
2022/12/14 11:15:36;;;;;;;23.13;14.37;;;-0.70;99.40;;;;;;5033505;28;20694;-78
2022/12/14 11:18:06;;;;;;;22.70;14.30;;;-0.80;99.90;;;;;;5035297;28;20338;-78
2022/12/14 11:20:33;;;;;;;22.90;14.97;;;-0.90;99.70;;;;;;5036150;28;20259;-78
2022/12/14 11:23:08;;;;;;;24.50;14.67;;;-1.10;99.30;;;;;;5038322;28;20232;-77
2022/12/14 11:25:38;;;;;;;22.97;14.50;;;-1.10;99.90;;;;;;5040199;28;20644;-78
2022/12/14 11:28:21;;;;;;;22.73;14.73;;;-1.20;99.90;;;;;;5037767;28;20277;-78
2022/12/14 11:30:58;;;;;;;24.70;15.33;;;-1.20;99.90;;;;;;5033816;28;20224;-78
2022/12/14 11:33:31;;;;;;;25.97;14.57;;;-1.30;99.90;;;;;;5036900;28;20234;-78
2022/12/14 11:35:58;;;;;;;22.73;14.17;;;-1.30;99.90;;;;;;5034482;28;20222;-78
2022/12/14 11:38:27;;;;;;;19.27;12.53;;;-1.30;99.90;;;;;;5041730;28;20227;-78
2022/12/14 11:40:54;;;;;;;19.77;12.27;;;-1.30;99.90;;;;;;5039121;28;20227;-78
2022/12/14 11:43:26;;;;;;;18.37;11.63;;;-1.30;99.80;;;;;;5041228;28;20267;-79
2022/12/14 11:45:55;;;;;;;18.73;11.03;;;-1.30;99.90;;;;;;5042950;28;20245;-78
2022/12/14 11:48:24;;;;;;;21.47;11.90;;;-1.30;99.90;;;;;;5039377;28;20237;-79
2022/12/14 11:50:53;;;;;;;17.40;11.60;;;-1.30;99.90;;;;;;5029044;28;20230;-78
2022/12/14 11:53:21;;;;;;;18.17;11.07;;;-1.30;99.90;;;;;;5031893;28;20635;-78
2022/12/14 11:55:55;;;;;;;17.17;11.57;;;-1.30;99.90;;;;;;5042951;28;20248;-78
2022/12/14 11:58:30;;;;;;;17.13;11.00;;;-1.30;99.90;;;;;;5041300;28;20314;-79
2022/12/14 12:00:59;;;;;;;15.57;10.97;;;-1.30;99.90;;;;;;5040304;28;20245;-78
2022/12/14 12:03:30;;;;;;;19.43;11.27;;;-1.20;99.90;;;;;;5032893;28;20232;-77
2022/12/14 12:06:04;;;;;;;18.80;11.77;;;-1.20;99.90;;;;;;5034570;28;20235;-78
2022/12/14 12:08:37;;;;;;;18.87;10.77;;;-1.20;99.90;;;;;;5041097;28;20323;-78
2022/12/14 12:11:06;;;;;;;18.37;11.33;;;-1.20;99.90;;;;;;5033877;28;20226;-77
2022/12/14 12:13:38;;;;;;;16.07;11.13;;;-1.20;99.80;;;;;;5035963;28;20223;-77
2022/12/14 12:16:12;;;;;;;18.33;10.87;;;-1.20;99.40;;;;;;5041713;28;20587;-77
2022/12/14 12:18:43;;;;;;;18.00;10.90;;;-1.20;99.90;;;;;;5036202;28;20221;-78
2022/12/14 12:21:15;;;;;;;20.57;11.33;;;-1.20;99.90;;;;;;5042372;28;20231;-77
2022/12/14 12:23:45;;;;;;;17.20;10.63;;;-1.20;99.70;;;;;;5037177;28;20226;-77
2022/12/14 12:26:17;;;;;;;15.10;10.47;;;-1.30;99.90;;;;;;5039753;28;20237;-77
2022/12/14 12:28:50;;;;;;;20.73;11.77;;;-1.30;99.90;;;;;;5049205;28;20228;-77
2022/12/14 12:31:22;;;;;;;21.03;11.70;;;-1.20;99.90;;;;;;5038305;28;20265;-77
2022/12/14 12:33:54;;;;;;;17.27;10.97;;;-1.20;99.90;;;;;;5034879;28;20226;-77
2022/12/14 12:36:22;;;;;;;17.40;10.87;;;-1.20;99.90;;;;;;5033536;28;20234;-78
2022/12/14 12:38:59;;;;;;;16.77;10.50;;;-1.20;99.90;;;;;;5040843;28;20223;-77
2022/12/14 12:41:32;;;;;;;17.90;9.97;;;-1.20;99.90;;;;;;5034061;28;20315;-78
2022/12/14 12:44:06;;;;;;;16.37;9.97;;;-1.20;99.90;;;;;;5035779;28;20223;-76
2022/12/14 12:46:37;;;;;;;18.20;10.90;;;-1.20;99.90;;;;;;5036270;28;20726;-74
2022/12/14 12:49:09;;;;;;;18.43;10.83;;;-1.20;99.90;;;;;;5035361;28;20739;-79
2022/12/14 12:51:46;;;;;;;17.13;10.80;;;-1.10;99.90;;;;;;5037839;28;20245;-78
2022/12/14 12:54:18;;;;;;;17.77;10.70;;;-1.10;99.90;;;;;;5033933;28;20253;-76
2022/12/14 12:56:48;;;;;;;17.70;10.37;;;-1.20;99.90;;;;;;5038320;28;20234;-76